sensor_id;sensor_type;location;lat;lon;timestamp;P1;durP1;ratioP1;P2;durP2;ratioP2
15358;SDS011;7779;49.596;11.070;2023-05-14T00:02:17;3.47;;;3.17;;
15358;SDS011;7779;49.596;11.070;2023-05-14T00:04:42;3.70;;;3.40;;
15358;SDS011;7779;49.596;11.070;2023-05-14T00:07:08;2.90;;;2.70;;
15358;SDS011;7779;49.596;11.070;2023-05-14T00:09:34;3.37;;;3.07;;
15358;SDS011;7779;49.596;11.070;2023-05-14T00:12:00;3.60;;;3.30;;
15358;SDS011;7779;49.596;11.070;2023-05-14T00:14:25;3.90;;;3.00;;
15358;SDS011;7779;49.596;11.070;2023-05-14T00:16:51;3.47;;;3.17;;
15358;SDS011;7779;49.596;11.070;2023-05-14T00:19:17;3.10;;;2.80;;
15358;SDS011;7779;49.596;11.070;2023-05-14T00:21:43;4.00;;;2.90;;
15358;SDS011;7779;49.596;11.070;2023-05-14T00:24:08;3.40;;;3.10;;
15358;SDS011;7779;49.596;11.070;2023-05-14T00:26:34;4.47;;;2.87;;
15358;SDS011;7779;49.596;11.070;2023-05-14T00:29:00;3.30;;;3.00;;
15358;SDS011;7779;49.596;11.070;2023-05-14T00:31:25;3.30;;;3.00;;
15358;SDS011;7779;49.596;11.070;2023-05-14T00:33:51;3.97;;;3.50;;
15358;SDS011;7779;49.596;11.070;2023-05-14T00:36:17;3.20;;;2.90;;
15358;SDS011;7779;49.596;11.070;2023-05-14T00:38:42;3.13;;;2.83;;
15358;SDS011;7779;49.596;11.070;2023-05-14T00:41:08;3.80;;;2.90;;
15358;SDS011;7779;49.596;11.070;2023-05-14T00:43:34;3.50;;;2.73;;
15358;SDS011;7779;49.596;11.070;2023-05-14T00:45:59;3.30;;;3.00;;
15358;SDS011;7779;49.596;11.070;2023-05-14T00:48:25;3.00;;;2.70;;
15358;SDS011;7779;49.596;11.070;2023-05-14T00:50:51;3.93;;;3.10;;
15358;SDS011;7779;49.596;11.070;2023-05-14T00:53:20;3.37;;;2.57;;
15358;SDS011;7779;49.596;11.070;2023-05-14T00:55:48;3.03;;;2.73;;
15358;SDS011;7779;49.596;11.070;2023-05-14T00:58:14;2.80;;;2.60;;
15358;SDS011;7779;49.596;11.070;2023-05-14T01:00:42;2.97;;;2.70;;
15358;SDS011;7779;49.596;11.070;2023-05-14T01:03:08;3.47;;;3.17;;
15358;SDS011;7779;49.596;11.070;2023-05-14T01:05:40;3.10;;;2.80;;
15358;SDS011;7779;49.596;11.070;2023-05-14T01:08:24;3.43;;;2.53;;
15358;SDS011;7779;49.596;11.070;2023-05-14T01:14:19;3.20;;;2.90;;
15358;SDS011;7779;49.596;11.070;2023-05-14T01:16:51;3.03;;;2.73;;
15358;SDS011;7779;49.596;11.070;2023-05-14T01:19:32;2.90;;;2.63;;
15358;SDS011;7779;49.596;11.070;2023-05-14T01:22:04;3.23;;;2.93;;
15358;SDS011;7779;49.596;11.070;2023-05-14T01:24:30;3.47;;;2.90;;
15358;SDS011;7779;49.596;11.070;2023-05-14T01:26:57;3.07;;;2.77;;
15358;SDS011;7779;49.596;11.070;2023-05-14T01:29:44;3.13;;;2.83;;
15358;SDS011;7779;49.596;11.070;2023-05-14T01:32:46;2.93;;;2.67;;
15358;SDS011;7779;49.596;11.070;2023-05-14T01:35:18;3.13;;;2.83;;
15358;SDS011;7779;49.596;11.070;2023-05-14T01:37:47;3.47;;;3.17;;
15358;SDS011;7779;49.596;11.070;2023-05-14T01:40:14;3.13;;;2.63;;
15358;SDS011;7779;49.596;11.070;2023-05-14T01:42:40;3.90;;;2.93;;
15358;SDS011;7779;49.596;11.070;2023-05-14T01:45:08;3.30;;;3.00;;
15358;SDS011;7779;49.596;11.070;2023-05-14T01:47:34;3.03;;;2.77;;
15358;SDS011;7779;49.596;11.070;2023-05-14T01:50:00;3.37;;;3.07;;
15358;SDS011;7779;49.596;11.070;2023-05-14T01:52:26;3.30;;;3.00;;
15358;SDS011;7779;49.596;11.070;2023-05-14T01:54:52;3.27;;;2.80;;
15358;SDS011;7779;49.596;11.070;2023-05-14T01:57:17;2.93;;;2.70;;
15358;SDS011;7779;49.596;11.070;2023-05-14T01:59:43;3.13;;;2.83;;
15358;SDS011;7779;49.596;11.070;2023-05-14T02:02:09;3.17;;;2.87;;
15358;SDS011;7779;49.596;11.070;2023-05-14T02:04:34;3.47;;;3.17;;
15358;SDS011;7779;49.596;11.070;2023-05-14T02:07:00;4.57;;;3.33;;
15358;SDS011;7779;49.596;11.070;2023-05-14T02:09:26;3.30;;;2.73;;
15358;SDS011;7779;49.596;11.070;2023-05-14T02:11:51;3.13;;;2.90;;
15358;SDS011;7779;49.596;11.070;2023-05-14T02:14:17;3.07;;;2.77;;
15358;SDS011;7779;49.596;11.070;2023-05-14T02:16:43;3.57;;;2.90;;
15358;SDS011;7779;49.596;11.070;2023-05-14T02:19:09;3.40;;;3.10;;
15358;SDS011;7779;49.596;11.070;2023-05-14T02:21:35;3.37;;;3.00;;
15358;SDS011;7779;49.596;11.070;2023-05-14T02:24:00;2.90;;;2.70;;
15358;SDS011;7779;49.596;11.070;2023-05-14T02:26:26;4.40;;;2.90;;
15358;SDS011;7779;49.596;11.070;2023-05-14T02:28:53;3.83;;;3.03;;
15358;SDS011;7779;49.596;11.070;2023-05-14T02:31:18;3.10;;;2.80;;
15358;SDS011;7779;49.596;11.070;2023-05-14T02:33:44;3.30;;;3.00;;
15358;SDS011;7779;49.596;11.070;2023-05-14T02:36:10;3.57;;;3.00;;
15358;SDS011;7779;49.596;11.070;2023-05-14T02:38:36;3.47;;;2.90;;
15358;SDS011;7779;49.596;11.070;2023-05-14T02:41:01;3.20;;;2.90;;
15358;SDS011;7779;49.596;11.070;2023-05-14T02:43:27;3.50;;;3.20;;
15358;SDS011;7779;49.596;11.070;2023-05-14T02:45:53;3.93;;;2.97;;
15358;SDS011;7779;49.596;11.070;2023-05-14T02:48:18;3.00;;;2.80;;
15358;SDS011;7779;49.596;11.070;2023-05-14T02:50:44;5.93;;;3.10;;
15358;SDS011;7779;49.596;11.070;2023-05-14T02:53:11;3.70;;;3.40;;
15358;SDS011;7779;49.596;11.070;2023-05-14T02:55:36;3.17;;;2.90;;
15358;SDS011;7779;49.596;11.070;2023-05-14T02:58:02;3.00;;;2.80;;
15358;SDS011;7779;49.596;11.070;2023-05-14T03:00:28;3.43;;;3.17;;
15358;SDS011;7779;49.596;11.070;2023-05-14T03:02:53;3.40;;;3.10;;
15358;SDS011;7779;49.596;11.070;2023-05-14T03:05:19;3.13;;;2.93;;
15358;SDS011;7779;49.596;11.070;2023-05-14T03:07:45;3.27;;;2.97;;
15358;SDS011;7779;49.596;11.070;2023-05-14T03:10:11;3.43;;;3.13;;
15358;SDS011;7779;49.596;11.070;2023-05-14T03:12:36;3.47;;;3.17;;
15358;SDS011;7779;49.596;11.070;2023-05-14T03:15:02;3.97;;;3.57;;
15358;SDS011;7779;49.596;11.070;2023-05-14T03:17:29;3.10;;;2.80;;
15358;SDS011;7779;49.596;11.070;2023-05-14T03:19:54;3.37;;;3.07;;
15358;SDS011;7779;49.596;11.070;2023-05-14T03:22:20;3.23;;;2.93;;
15358;SDS011;7779;49.596;11.070;2023-05-14T03:24:46;4.73;;;3.20;;
15358;SDS011;7779;49.596;11.070;2023-05-14T03:27:11;3.40;;;2.73;;
15358;SDS011;7779;49.596;11.070;2023-05-14T03:29:37;3.17;;;2.87;;
15358;SDS011;7779;49.596;11.070;2023-05-14T03:32:03;4.80;;;3.20;;
15358;SDS011;7779;49.596;11.070;2023-05-14T03:34:30;3.23;;;2.93;;
15358;SDS011;7779;49.596;11.070;2023-05-14T03:36:55;3.40;;;3.10;;
15358;SDS011;7779;49.596;11.070;2023-05-14T03:39:21;3.40;;;3.10;;
15358;SDS011;7779;49.596;11.070;2023-05-14T03:41:47;3.60;;;3.30;;
15358;SDS011;7779;49.596;11.070;2023-05-14T03:44:13;3.20;;;2.90;;
15358;SDS011;7779;49.596;11.070;2023-05-14T03:46:39;3.83;;;3.10;;
15358;SDS011;7779;49.596;11.070;2023-05-14T03:49:05;4.63;;;3.70;;
15358;SDS011;7779;49.596;11.070;2023-05-14T03:51:31;3.53;;;3.10;;
15358;SDS011;7779;49.596;11.070;2023-05-14T03:53:57;3.73;;;3.43;;
15358;SDS011;7779;49.596;11.070;2023-05-14T03:56:23;3.80;;;3.50;;
15358;SDS011;7779;49.596;11.070;2023-05-14T03:58:51;4.13;;;3.73;;
15358;SDS011;7779;49.596;11.070;2023-05-14T04:01:17;3.23;;;2.93;;
15358;SDS011;7779;49.596;11.070;2023-05-14T04:03:43;3.37;;;3.07;;
15358;SDS011;7779;49.596;11.070;2023-05-14T04:06:09;3.87;;;3.43;;
15358;SDS011;7779;49.596;11.070;2023-05-14T04:08:35;4.17;;;3.20;;
15358;SDS011;7779;49.596;11.070;2023-05-14T04:11:00;3.70;;;3.40;;
15358;SDS011;7779;49.596;11.070;2023-05-14T04:13:26;3.93;;;3.17;;
15358;SDS011;7779;49.596;11.070;2023-05-14T04:15:52;3.43;;;3.13;;
15358;SDS011;7779;49.596;11.070;2023-05-14T04:18:18;4.90;;;3.47;;
15358;SDS011;7779;49.596;11.070;2023-05-14T04:20:44;3.83;;;3.27;;
15358;SDS011;7779;49.596;11.070;2023-05-14T04:23:09;3.70;;;3.40;;
15358;SDS011;7779;49.596;11.070;2023-05-14T04:25:35;3.63;;;3.33;;
15358;SDS011;7779;49.596;11.070;2023-05-14T04:28:01;3.77;;;3.20;;
15358;SDS011;7779;49.596;11.070;2023-05-14T04:30:26;3.50;;;3.20;;
15358;SDS011;7779;49.596;11.070;2023-05-14T04:32:52;3.33;;;3.03;;
15358;SDS011;7779;49.596;11.070;2023-05-14T04:35:19;3.87;;;3.47;;
15358;SDS011;7779;49.596;11.070;2023-05-14T04:37:45;4.10;;;3.70;;
15358;SDS011;7779;49.596;11.070;2023-05-14T04:40:11;3.63;;;2.90;;
15358;SDS011;7779;49.596;11.070;2023-05-14T04:42:37;3.90;;;3.50;;
15358;SDS011;7779;49.596;11.070;2023-05-14T04:45:03;3.97;;;3.40;;
15358;SDS011;7779;49.596;11.070;2023-05-14T04:47:30;4.20;;;3.33;;
15358;SDS011;7779;49.596;11.070;2023-05-14T04:49:56;4.37;;;3.93;;
15358;SDS011;7779;49.596;11.070;2023-05-14T04:52:22;4.40;;;4.00;;
15358;SDS011;7779;49.596;11.070;2023-05-14T04:54:48;4.80;;;4.03;;
15358;SDS011;7779;49.596;11.070;2023-05-14T04:57:14;5.87;;;4.50;;
15358;SDS011;7779;49.596;11.070;2023-05-14T04:59:40;4.43;;;4.03;;
15358;SDS011;7779;49.596;11.070;2023-05-14T05:02:06;4.17;;;3.77;;
15358;SDS011;7779;49.596;11.070;2023-05-14T05:04:32;4.53;;;4.03;;
15358;SDS011;7779;49.596;11.070;2023-05-14T05:06:58;5.77;;;3.83;;
15358;SDS011;7779;49.596;11.070;2023-05-14T05:09:23;4.60;;;4.13;;
15358;SDS011;7779;49.596;11.070;2023-05-14T05:11:49;4.40;;;4.00;;
15358;SDS011;7779;49.596;11.070;2023-05-14T05:14:15;4.03;;;3.63;;
15358;SDS011;7779;49.596;11.070;2023-05-14T05:16:41;5.03;;;4.53;;
15358;SDS011;7779;49.596;11.070;2023-05-14T05:19:07;4.73;;;4.23;;
15358;SDS011;7779;49.596;11.070;2023-05-14T05:21:33;4.93;;;4.00;;
15358;SDS011;7779;49.596;11.070;2023-05-14T05:23:59;4.77;;;4.27;;
15358;SDS011;7779;49.596;11.070;2023-05-14T05:26:25;4.30;;;3.90;;
15358;SDS011;7779;49.596;11.070;2023-05-14T05:28:52;4.93;;;4.20;;
15358;SDS011;7779;49.596;11.070;2023-05-14T05:31:17;5.43;;;4.47;;
15358;SDS011;7779;49.596;11.070;2023-05-14T05:33:43;5.57;;;4.10;;
15358;SDS011;7779;49.596;11.070;2023-05-14T05:36:09;4.67;;;4.17;;
15358;SDS011;7779;49.596;11.070;2023-05-14T05:38:35;5.77;;;4.77;;
15358;SDS011;7779;49.596;11.070;2023-05-14T05:41:01;4.30;;;3.90;;
15358;SDS011;7779;49.596;11.070;2023-05-14T05:43:26;5.27;;;4.30;;
15358;SDS011;7779;49.596;11.070;2023-05-14T05:45:52;4.33;;;3.93;;
15358;SDS011;7779;49.596;11.070;2023-05-14T05:48:18;4.30;;;3.90;;
15358;SDS011;7779;49.596;11.070;2023-05-14T05:50:46;4.70;;;4.00;;
15358;SDS011;7779;49.596;11.070;2023-05-14T05:53:13;5.60;;;4.20;;
15358;SDS011;7779;49.596;11.070;2023-05-14T05:55:40;4.37;;;3.97;;
15358;SDS011;7779;49.596;11.070;2023-05-14T05:58:06;4.47;;;4.07;;
15358;SDS011;7779;49.596;11.070;2023-05-14T06:00:32;4.10;;;3.80;;
15358;SDS011;7779;49.596;11.070;2023-05-14T06:02:58;5.30;;;3.90;;
15358;SDS011;7779;49.596;11.070;2023-05-14T06:05:24;4.03;;;3.53;;
15358;SDS011;7779;49.596;11.070;2023-05-14T06:07:50;3.97;;;3.57;;
15358;SDS011;7779;49.596;11.070;2023-05-14T06:10:17;4.10;;;3.73;;
15358;SDS011;7779;49.596;11.070;2023-05-14T06:12:43;4.60;;;4.10;;
15358;SDS011;7779;49.596;11.070;2023-05-14T06:15:09;5.50;;;4.00;;
15358;SDS011;7779;49.596;11.070;2023-05-14T06:17:37;4.17;;;3.80;;
15358;SDS011;7779;49.596;11.070;2023-05-14T06:20:03;4.37;;;3.97;;
15358;SDS011;7779;49.596;11.070;2023-05-14T06:22:31;4.20;;;3.77;;
15358;SDS011;7779;49.596;11.070;2023-05-14T06:24:58;3.80;;;3.50;;
15358;SDS011;7779;49.596;11.070;2023-05-14T06:27:23;3.87;;;3.47;;
15358;SDS011;7779;49.596;11.070;2023-05-14T06:29:49;3.60;;;3.30;;
15358;SDS011;7779;49.596;11.070;2023-05-14T06:32:15;3.57;;;3.27;;
15358;SDS011;7779;49.596;11.070;2023-05-14T06:34:41;3.63;;;3.10;;
15358;SDS011;7779;49.596;11.070;2023-05-14T06:37:08;3.80;;;3.43;;
15358;SDS011;7779;49.596;11.070;2023-05-14T06:39:35;4.30;;;3.33;;
15358;SDS011;7779;49.596;11.070;2023-05-14T06:42:02;4.47;;;3.37;;
15358;SDS011;7779;49.596;11.070;2023-05-14T06:44:29;4.73;;;3.33;;
15358;SDS011;7779;49.596;11.070;2023-05-14T06:46:55;3.30;;;2.90;;
15358;SDS011;7779;49.596;11.070;2023-05-14T06:49:21;5.63;;;3.60;;
15358;SDS011;7779;49.596;11.070;2023-05-14T06:51:47;3.50;;;3.17;;
15358;SDS011;7779;49.596;11.070;2023-05-14T06:54:13;3.83;;;3.40;;
15358;SDS011;7779;49.596;11.070;2023-05-14T06:56:38;3.47;;;3.17;;
15358;SDS011;7779;49.596;11.070;2023-05-14T06:59:04;3.77;;;3.27;;
15358;SDS011;7779;49.596;11.070;2023-05-14T07:01:30;3.10;;;2.80;;
15358;SDS011;7779;49.596;11.070;2023-05-14T07:03:56;3.40;;;3.10;;
15358;SDS011;7779;49.596;11.070;2023-05-14T07:06:22;3.13;;;2.93;;
15358;SDS011;7779;49.596;11.070;2023-05-14T07:08:48;3.40;;;3.10;;
15358;SDS011;7779;49.596;11.070;2023-05-14T07:11:13;3.13;;;2.90;;
15358;SDS011;7779;49.596;11.070;2023-05-14T07:13:40;3.47;;;2.73;;
15358;SDS011;7779;49.596;11.070;2023-05-14T07:16:06;3.20;;;2.90;;
15358;SDS011;7779;49.596;11.070;2023-05-14T07:18:35;3.27;;;2.97;;
15358;SDS011;7779;49.596;11.070;2023-05-14T07:21:01;3.83;;;2.80;;
15358;SDS011;7779;49.596;11.070;2023-05-14T07:23:30;3.13;;;2.83;;
15358;SDS011;7779;49.596;11.070;2023-05-14T07:25:58;3.27;;;2.97;;
15358;SDS011;7779;49.596;11.070;2023-05-14T07:28:24;3.33;;;3.03;;
15358;SDS011;7779;49.596;11.070;2023-05-14T07:30:49;3.10;;;2.90;;
15358;SDS011;7779;49.596;11.070;2023-05-14T07:33:15;4.53;;;3.37;;
15358;SDS011;7779;49.596;11.070;2023-05-14T07:35:41;3.47;;;3.17;;
15358;SDS011;7779;49.596;11.070;2023-05-14T07:38:06;3.53;;;3.23;;
15358;SDS011;7779;49.596;11.070;2023-05-14T07:40:32;3.60;;;3.13;;
15358;SDS011;7779;49.596;11.070;2023-05-14T07:42:58;4.10;;;3.17;;
15358;SDS011;7779;49.596;11.070;2023-05-14T07:45:23;3.37;;;3.07;;
15358;SDS011;7779;49.596;11.070;2023-05-14T07:47:49;3.63;;;3.00;;
15358;SDS011;7779;49.596;11.070;2023-05-14T07:50:16;3.47;;;3.17;;
15358;SDS011;7779;49.596;11.070;2023-05-14T07:52:43;2.90;;;2.70;;
15358;SDS011;7779;49.596;11.070;2023-05-14T07:55:09;4.17;;;3.40;;
15358;SDS011;7779;49.596;11.070;2023-05-14T07:57:36;4.00;;;3.60;;
15358;SDS011;7779;49.596;11.070;2023-05-14T08:00:02;3.10;;;2.80;;
15358;SDS011;7779;49.596;11.070;2023-05-14T08:02:37;3.77;;;3.30;;
15358;SDS011;7779;49.596;11.070;2023-05-14T08:05:03;4.37;;;3.30;;
15358;SDS011;7779;49.596;11.070;2023-05-14T08:07:29;3.60;;;3.30;;
15358;SDS011;7779;49.596;11.070;2023-05-14T08:09:55;3.57;;;3.27;;
15358;SDS011;7779;49.596;11.070;2023-05-14T08:12:21;3.80;;;3.40;;
15358;SDS011;7779;49.596;11.070;2023-05-14T08:14:47;3.73;;;3.43;;
15358;SDS011;7779;49.596;11.070;2023-05-14T08:17:12;3.80;;;3.40;;
15358;SDS011;7779;49.596;11.070;2023-05-14T08:19:38;3.20;;;2.93;;
15358;SDS011;7779;49.596;11.070;2023-05-14T08:22:04;3.23;;;2.93;;
15358;SDS011;7779;49.596;11.070;2023-05-14T08:24:29;3.33;;;3.00;;
15358;SDS011;7779;49.596;11.070;2023-05-14T08:26:55;4.00;;;3.60;;
15358;SDS011;7779;49.596;11.070;2023-05-14T08:29:21;3.50;;;3.13;;
15358;SDS011;7779;49.596;11.070;2023-05-14T08:31:48;3.17;;;2.87;;
15358;SDS011;7779;49.596;11.070;2023-05-14T08:34:15;3.70;;;3.40;;
15358;SDS011;7779;49.596;11.070;2023-05-14T08:36:41;3.77;;;3.43;;
15358;SDS011;7779;49.596;11.070;2023-05-14T08:39:06;3.53;;;3.23;;
15358;SDS011;7779;49.596;11.070;2023-05-14T08:41:32;3.50;;;3.20;;
15358;SDS011;7779;49.596;11.070;2023-05-14T08:44:11;4.87;;;3.20;;
15358;SDS011;7779;49.596;11.070;2023-05-14T08:46:39;4.50;;;3.40;;
15358;SDS011;7779;49.596;11.070;2023-05-14T08:49:53;3.70;;;3.40;;
15358;SDS011;7779;49.596;11.070;2023-05-14T08:52:09;3.70;;;3.40;;
15358;SDS011;7779;49.596;11.070;2023-05-14T08:54:35;3.90;;;3.27;;
15358;SDS011;7779;49.596;11.070;2023-05-14T08:57:04;3.73;;;3.17;;
15358;SDS011;7779;49.596;11.070;2023-05-14T08:59:35;3.87;;;3.30;;
15358;SDS011;7779;49.596;11.070;2023-05-14T09:02:01;3.30;;;3.00;;
15358;SDS011;7779;49.596;11.070;2023-05-14T09:04:30;3.60;;;3.10;;
15358;SDS011;7779;49.596;11.070;2023-05-14T09:06:56;3.57;;;3.23;;
15358;SDS011;7779;49.596;11.070;2023-05-14T09:09:26;3.37;;;3.07;;
15358;SDS011;7779;49.596;11.070;2023-05-14T09:11:52;3.43;;;3.10;;
15358;SDS011;7779;49.596;11.070;2023-05-14T09:14:18;3.63;;;3.27;;
15358;SDS011;7779;49.596;11.070;2023-05-14T09:16:48;3.40;;;3.10;;
15358;SDS011;7779;49.596;11.070;2023-05-14T09:19:15;4.10;;;3.20;;
15358;SDS011;7779;49.596;11.070;2023-05-14T09:21:46;3.27;;;2.97;;
15358;SDS011;7779;49.596;11.070;2023-05-14T09:24:19;3.97;;;3.57;;
15358;SDS011;7779;49.596;11.070;2023-05-14T09:26:51;3.37;;;3.07;;
15358;SDS011;7779;49.596;11.070;2023-05-14T09:29:18;3.50;;;3.20;;
15358;SDS011;7779;49.596;11.070;2023-05-14T09:31:45;3.27;;;2.97;;
15358;SDS011;7779;49.596;11.070;2023-05-14T09:34:22;3.77;;;3.43;;
15358;SDS011;7779;49.596;11.070;2023-05-14T09:36:49;4.00;;;3.20;;
15358;SDS011;7779;49.596;11.070;2023-05-14T09:39:21;3.80;;;3.07;;
15358;SDS011;7779;49.596;11.070;2023-05-14T09:41:49;3.40;;;3.10;;
15358;SDS011;7779;49.596;11.070;2023-05-14T09:44:18;4.00;;;3.10;;
15358;SDS011;7779;49.596;11.070;2023-05-14T09:46:45;3.43;;;3.13;;
15358;SDS011;7779;49.596;11.070;2023-05-14T09:49:11;3.67;;;3.20;;
15358;SDS011;7779;49.596;11.070;2023-05-14T09:51:37;3.07;;;2.80;;
15358;SDS011;7779;49.596;11.070;2023-05-14T09:54:04;3.07;;;2.77;;
15358;SDS011;7779;49.596;11.070;2023-05-14T09:56:31;4.07;;;2.97;;
15358;SDS011;7779;49.596;11.070;2023-05-14T09:58:57;3.00;;;2.70;;
15358;SDS011;7779;49.596;11.070;2023-05-14T10:01:23;3.13;;;2.83;;
15358;SDS011;7779;49.596;11.070;2023-05-14T10:03:51;3.30;;;3.00;;
15358;SDS011;7779;49.596;11.070;2023-05-14T10:06:21;3.00;;;2.80;;
15358;SDS011;7779;49.596;11.070;2023-05-14T10:08:53;3.30;;;2.93;;
15358;SDS011;7779;49.596;11.070;2023-05-14T10:11:24;2.67;;;2.47;;
15358;SDS011;7779;49.596;11.070;2023-05-14T10:14:07;2.93;;;2.70;;
15358;SDS011;7779;49.596;11.070;2023-05-14T10:16:45;3.03;;;2.73;;
15358;SDS011;7779;49.596;11.070;2023-05-14T10:19:15;3.07;;;2.70;;
15358;SDS011;7779;49.596;11.070;2023-05-14T10:21:44;2.90;;;2.57;;
15358;SDS011;7779;49.596;11.070;2023-05-14T10:24:20;3.20;;;2.90;;
15358;SDS011;7779;49.596;11.070;2023-05-14T10:26:46;3.10;;;2.80;;
15358;SDS011;7779;49.596;11.070;2023-05-14T10:29:12;3.10;;;2.80;;
15358;SDS011;7779;49.596;11.070;2023-05-14T10:31:51;3.90;;;2.80;;
15358;SDS011;7779;49.596;11.070;2023-05-14T10:34:31;2.87;;;2.67;;
15358;SDS011;7779;49.596;11.070;2023-05-14T10:37:21;2.93;;;2.70;;
15358;SDS011;7779;49.596;11.070;2023-05-14T10:39:53;3.10;;;2.80;;
15358;SDS011;7779;49.596;11.070;2023-05-14T10:42:34;3.07;;;2.80;;
15358;SDS011;7779;49.596;11.070;2023-05-14T10:45:07;3.00;;;2.70;;
15358;SDS011;7779;49.596;11.070;2023-05-14T10:47:40;2.90;;;2.70;;
15358;SDS011;7779;49.596;11.070;2023-05-14T10:50:12;3.27;;;2.97;;
15358;SDS011;7779;49.596;11.070;2023-05-14T10:52:40;3.00;;;2.70;;
15358;SDS011;7779;49.596;11.070;2023-05-14T10:55:08;2.60;;;2.40;;
15358;SDS011;7779;49.596;11.070;2023-05-14T10:57:38;2.60;;;2.40;;
15358;SDS011;7779;49.596;11.070;2023-05-14T11:00:06;2.63;;;2.43;;
15358;SDS011;7779;49.596;11.070;2023-05-14T11:05:02;2.87;;;2.60;;
15358;SDS011;7779;49.596;11.070;2023-05-14T11:07:39;3.30;;;2.80;;
15358;SDS011;7779;49.596;11.070;2023-05-14T11:10:12;2.80;;;2.60;;
15358;SDS011;7779;49.596;11.070;2023-05-14T11:12:46;2.80;;;2.60;;
15358;SDS011;7779;49.596;11.070;2023-05-14T11:15:15;3.07;;;2.70;;
15358;SDS011;7779;49.596;11.070;2023-05-14T11:17:44;2.80;;;2.57;;
15358;SDS011;7779;49.596;11.070;2023-05-14T11:20:11;2.90;;;2.70;;
15358;SDS011;7779;49.596;11.070;2023-05-14T11:22:38;2.70;;;2.50;;
15358;SDS011;7779;49.596;11.070;2023-05-14T11:25:05;3.07;;;2.43;;
15358;SDS011;7779;49.596;11.070;2023-05-14T11:27:33;2.60;;;2.40;;
15358;SDS011;7779;49.596;11.070;2023-05-14T11:30:03;2.93;;;2.73;;
15358;SDS011;7779;49.596;11.070;2023-05-14T11:32:31;2.53;;;2.33;;
15358;SDS011;7779;49.596;11.070;2023-05-14T11:34:57;3.73;;;2.40;;
15358;SDS011;7779;49.596;11.070;2023-05-14T11:37:23;2.40;;;2.20;;
15358;SDS011;7779;49.596;11.070;2023-05-14T11:39:49;3.00;;;2.50;;
15358;SDS011;7779;49.596;11.070;2023-05-14T11:42:17;2.50;;;2.30;;
15358;SDS011;7779;49.596;11.070;2023-05-14T11:44:45;2.50;;;2.30;;
15358;SDS011;7779;49.596;11.070;2023-05-14T11:47:13;2.60;;;2.40;;
15358;SDS011;7779;49.596;11.070;2023-05-14T11:49:39;2.43;;;2.23;;
15358;SDS011;7779;49.596;11.070;2023-05-14T11:52:06;2.40;;;2.20;;
15358;SDS011;7779;49.596;11.070;2023-05-14T11:54:38;2.60;;;2.40;;
15358;SDS011;7779;49.596;11.070;2023-05-14T11:57:06;2.50;;;2.30;;
15358;SDS011;7779;49.596;11.070;2023-05-14T11:59:38;2.40;;;2.20;;
15358;SDS011;7779;49.596;11.070;2023-05-14T12:02:04;2.27;;;2.07;;
15358;SDS011;7779;49.596;11.070;2023-05-14T12:04:34;2.20;;;2.00;;
15358;SDS011;7779;49.596;11.070;2023-05-14T12:07:03;2.13;;;1.93;;
15358;SDS011;7779;49.596;11.070;2023-05-14T12:09:43;2.20;;;2.00;;
15358;SDS011;7779;49.596;11.070;2023-05-14T12:12:15;2.37;;;2.17;;
15358;SDS011;7779;49.596;11.070;2023-05-14T12:14:44;2.57;;;2.37;;
15358;SDS011;7779;49.596;11.070;2023-05-14T12:17:12;2.03;;;1.93;;
15358;SDS011;7779;49.596;11.070;2023-05-14T12:19:43;2.10;;;2.00;;
15358;SDS011;7779;49.596;11.070;2023-05-14T12:22:16;2.20;;;2.00;;
15358;SDS011;7779;49.596;11.070;2023-05-14T12:24:53;2.33;;;2.13;;
15358;SDS011;7779;49.596;11.070;2023-05-14T12:27:24;2.23;;;2.03;;
15358;SDS011;7779;49.596;11.070;2023-05-14T12:30:01;2.40;;;2.20;;
15358;SDS011;7779;49.596;11.070;2023-05-14T12:32:30;2.20;;;2.10;;
15358;SDS011;7779;49.596;11.070;2023-05-14T12:34:57;2.30;;;2.10;;
15358;SDS011;7779;49.596;11.070;2023-05-14T12:37:25;2.40;;;2.20;;
15358;SDS011;7779;49.596;11.070;2023-05-14T12:39:51;1.90;;;1.80;;
15358;SDS011;7779;49.596;11.070;2023-05-14T12:42:17;2.50;;;2.30;;
15358;SDS011;7779;49.596;11.070;2023-05-14T12:44:43;2.37;;;2.17;;
15358;SDS011;7779;49.596;11.070;2023-05-14T12:47:08;2.57;;;1.93;;
15358;SDS011;7779;49.596;11.070;2023-05-14T12:49:34;2.60;;;2.23;;
15358;SDS011;7779;49.596;11.070;2023-05-14T12:52:00;2.00;;;1.90;;
15358;SDS011;7779;49.596;11.070;2023-05-14T12:54:26;2.87;;;1.63;;
15358;SDS011;7779;49.596;11.070;2023-05-14T12:56:52;2.17;;;1.97;;
15358;SDS011;7779;49.596;11.070;2023-05-14T12:59:18;2.00;;;1.90;;
15358;SDS011;7779;49.596;11.070;2023-05-14T13:01:43;2.20;;;2.00;;
15358;SDS011;7779;49.596;11.070;2023-05-14T13:04:09;1.97;;;1.77;;
15358;SDS011;7779;49.596;11.070;2023-05-14T13:06:38;2.20;;;2.00;;
15358;SDS011;7779;49.596;11.070;2023-05-14T13:09:04;2.17;;;1.80;;
15358;SDS011;7779;49.596;11.070;2023-05-14T13:11:31;1.90;;;1.80;;
15358;SDS011;7779;49.596;11.070;2023-05-14T13:13:58;2.03;;;1.87;;
15358;SDS011;7779;49.596;11.070;2023-05-14T13:16:27;2.30;;;2.10;;
15358;SDS011;7779;49.596;11.070;2023-05-14T13:18:54;1.83;;;1.73;;
15358;SDS011;7779;49.596;11.070;2023-05-14T13:21:20;1.87;;;1.70;;
15358;SDS011;7779;49.596;11.070;2023-05-14T13:23:46;1.90;;;1.70;;
15358;SDS011;7779;49.596;11.070;2023-05-14T13:26:12;1.90;;;1.80;;
15358;SDS011;7779;49.596;11.070;2023-05-14T13:28:39;1.83;;;1.73;;
15358;SDS011;7779;49.596;11.070;2023-05-14T13:31:06;2.47;;;1.63;;
15358;SDS011;7779;49.596;11.070;2023-05-14T13:33:40;1.80;;;1.70;;
15358;SDS011;7779;49.596;11.070;2023-05-14T13:36:08;1.70;;;1.60;;
15358;SDS011;7779;49.596;11.070;2023-05-14T13:38:36;2.07;;;1.87;;
15358;SDS011;7779;49.596;11.070;2023-05-14T13:41:02;1.80;;;1.70;;
15358;SDS011;7779;49.596;11.070;2023-05-14T13:43:32;2.00;;;1.90;;
15358;SDS011;7779;49.596;11.070;2023-05-14T13:46:00;2.17;;;2.07;;
15358;SDS011;7779;49.596;11.070;2023-05-14T13:48:28;2.10;;;1.90;;
15358;SDS011;7779;49.596;11.070;2023-05-14T13:50:54;2.30;;;2.10;;
15358;SDS011;7779;49.596;11.070;2023-05-14T13:53:21;2.07;;;1.97;;
15358;SDS011;7779;49.596;11.070;2023-05-14T13:55:48;2.10;;;1.90;;
15358;SDS011;7779;49.596;11.070;2023-05-14T13:58:15;1.93;;;1.80;;
15358;SDS011;7779;49.596;11.070;2023-05-14T14:00:40;2.23;;;1.97;;
15358;SDS011;7779;49.596;11.070;2023-05-14T14:03:07;1.90;;;1.80;;
15358;SDS011;7779;49.596;11.070;2023-05-14T14:05:35;2.00;;;1.90;;
15358;SDS011;7779;49.596;11.070;2023-05-14T14:08:01;1.90;;;1.80;;
15358;SDS011;7779;49.596;11.070;2023-05-14T14:10:27;1.90;;;1.77;;
15358;SDS011;7779;49.596;11.070;2023-05-14T14:12:53;1.80;;;1.70;;
15358;SDS011;7779;49.596;11.070;2023-05-14T14:15:19;1.87;;;1.63;;
15358;SDS011;7779;49.596;11.070;2023-05-14T14:17:44;2.20;;;2.00;;
15358;SDS011;7779;49.596;11.070;2023-05-14T14:20:10;1.90;;;1.80;;
15358;SDS011;7779;49.596;11.070;2023-05-14T14:22:37;1.87;;;1.77;;
15358;SDS011;7779;49.596;11.070;2023-05-14T14:25:04;2.10;;;1.90;;
15358;SDS011;7779;49.596;11.070;2023-05-14T14:27:32;2.00;;;1.80;;
15358;SDS011;7779;49.596;11.070;2023-05-14T14:30:02;2.00;;;1.80;;
15358;SDS011;7779;49.596;11.070;2023-05-14T14:32:32;1.80;;;1.70;;
15358;SDS011;7779;49.596;11.070;2023-05-14T14:34:57;1.83;;;1.73;;
15358;SDS011;7779;49.596;11.070;2023-05-14T14:37:23;2.00;;;1.90;;
15358;SDS011;7779;49.596;11.070;2023-05-14T14:39:49;2.07;;;1.80;;
15358;SDS011;7779;49.596;11.070;2023-05-14T14:42:15;1.90;;;1.70;;
15358;SDS011;7779;49.596;11.070;2023-05-14T14:44:40;1.50;;;1.40;;
15358;SDS011;7779;49.596;11.070;2023-05-14T14:47:06;2.10;;;1.80;;
15358;SDS011;7779;49.596;11.070;2023-05-14T14:49:32;1.70;;;1.60;;
15358;SDS011;7779;49.596;11.070;2023-05-14T14:51:57;2.13;;;1.90;;
15358;SDS011;7779;49.596;11.070;2023-05-14T14:54:23;1.80;;;1.70;;
15358;SDS011;7779;49.596;11.070;2023-05-14T14:56:49;2.20;;;1.80;;